Time;durP1;ratioP1;P1;durP2;ratioP2;P2;SDS_P1;SDS_P2;PMS_P1;PMS_P2;Temp;Humidity;BMP_temperature;BMP_pressure;BME280_temperature;BME280_humidity;BME280_pressure;Samples;Min_cycle;Max_cycle;Signal;HPM_P1;HPM_P2
2021/07/16 00:01:42;;;;;;;11.40;10.20;;;;;;;;;;5078377;28;20981;-79
2021/07/16 00:04:14;;;;;;;13.60;10.67;;;21.20;99.90;;;;;;5078354;28;20468;-79
2021/07/16 00:06:45;;;;;;;10.70;9.70;;;;;;;;;;5078913;28;20432;-80
2021/07/16 00:09:12;;;;;;;10.47;9.47;;;;;;;;;;5078854;28;20464;-80
2021/07/16 00:11:38;;;;;;;10.50;9.40;;;21.00;99.90;;;;;;5078596;28;20452;-80
2021/07/16 00:14:05;;;;;;;10.97;9.97;;;21.00;99.90;;;;;;5078143;28;20496;-79
2021/07/16 00:16:33;;;;;;;11.23;10.17;;;21.00;99.90;;;;;;5078942;28;20480;-79
2021/07/16 00:18:59;;;;;;;12.40;10.30;;;21.00;99.90;;;;;;5078327;28;20501;-79
2021/07/16 00:21:27;;;;;;;11.70;10.60;;;21.00;99.90;;;;;;5078016;28;20503;-80
2021/07/16 00:23:54;;;;;;;11.00;9.90;;;21.00;99.90;;;;;;5079529;28;20518;-80
2021/07/16 00:26:21;;;;;;;11.90;10.70;;;21.00;99.90;;;;;;5079657;28;20476;-79
2021/07/16 00:28:48;;;;;;;13.70;12.30;;;21.00;99.90;;;;;;5079131;28;20520;-79
2021/07/16 00:31:15;;;;;;;11.90;10.80;;;21.00;99.90;;;;;;5078609;28;20449;-78
2021/07/16 00:33:42;;;;;;;13.40;12.10;;;21.00;99.90;;;;;;5076069;28;20819;-78
2021/07/16 00:36:08;;;;;;;13.27;11.87;;;21.10;99.90;;;;;;5076005;28;20476;-79
2021/07/16 00:38:36;;;;;;;12.27;10.97;;;21.00;99.90;;;;;;5076498;28;20487;-77
2021/07/16 00:41:04;;;;;;;16.20;11.63;;;20.90;99.90;;;;;;5075932;28;20452;-77
2021/07/16 00:43:30;;;;;;;14.60;11.20;;;20.50;99.90;;;;;;5076526;28;20483;-78
2021/07/16 00:45:57;;;;;;;13.10;11.80;;;20.60;99.90;;;;;;5077797;28;20487;-78
2021/07/16 00:48:23;;;;;;;11.53;10.53;;;20.60;99.90;;;;;;5077185;28;21032;-78
2021/07/16 00:50:52;;;;;;;12.93;11.63;;;20.50;99.90;;;;;;5077844;28;20472;-78
2021/07/16 00:53:19;;;;;;;12.80;11.00;;;20.50;99.90;;;;;;5077861;28;20460;-78
2021/07/16 00:55:48;;;;;;;13.60;12.30;;;20.40;99.90;;;;;;5077794;28;20444;-78
2021/07/16 00:58:16;;;;;;;11.83;10.83;;;20.50;99.90;;;;;;5077416;28;20958;-78
2021/07/16 01:00:43;;;;;;;12.73;11.50;;;20.50;99.90;;;;;;5077861;28;20476;-78
2021/07/16 01:03:10;;;;;;;12.97;11.43;;;20.60;99.90;;;;;;5077695;28;20444;-78
2021/07/16 01:05:37;;;;;;;14.40;11.77;;;20.60;99.90;;;;;;5076873;28;20502;-78
2021/07/16 01:08:05;;;;;;;12.67;11.47;;;20.60;99.90;;;;;;5078009;28;20500;-78
2021/07/16 01:10:32;;;;;;;12.60;11.30;;;20.70;99.90;;;;;;5076734;28;20985;-79
2021/07/16 01:13:00;;;;;;;12.90;11.60;;;20.70;99.90;;;;;;5077388;28;20479;-77
2021/07/16 01:15:30;;;;;;;11.93;10.73;;;20.70;99.90;;;;;;5077494;28;20500;-78
2021/07/16 02:21:43;;;;;;;11.23;10.23;;;19.90;99.90;;;;;;5074073;28;20381;-77
2021/07/16 02:24:09;;;;;;;11.47;10.37;;;19.90;99.90;;;;;;5073749;28;20488;-76
2021/07/16 02:26:37;;;;;;;10.77;9.63;;;19.60;99.90;;;;;;5073697;28;20528;-77
2021/07/16 02:29:05;;;;;;;11.90;10.67;;;20.00;99.90;;;;;;5073436;28;20574;-77
2021/07/16 02:31:32;;;;;;;11.43;10.43;;;20.10;99.90;;;;;;5073707;28;20815;-76
2021/07/16 02:33:59;;;;;;;12.37;11.13;;;20.10;99.90;;;;;;5073638;28;20505;-76
2021/07/16 02:36:26;;;;;;;11.80;10.70;;;20.00;99.90;;;;;;5073663;28;20479;-76
2021/07/16 02:38:54;;;;;;;12.07;10.87;;;20.00;99.90;;;;;;5073686;28;20507;-78
2021/07/16 02:41:20;;;;;;;12.80;10.57;;;20.00;99.90;;;;;;5073442;28;20501;-76
2021/07/16 02:43:47;;;;;;;11.87;10.77;;;19.90;99.90;;;;;;5073614;28;20492;-76
2021/07/16 02:46:14;;;;;;;12.07;10.87;;;19.90;99.90;;;;;;5073592;28;20480;-77
2021/07/16 02:48:41;;;;;;;11.27;10.27;;;19.80;99.90;;;;;;5073607;28;20511;-76
2021/07/16 02:51:08;;;;;;;12.33;11.17;;;19.70;99.90;;;;;;5073702;28;20480;-76
2021/07/16 02:53:34;;;;;;;10.87;9.60;;;19.80;99.90;;;;;;5073939;28;20531;-76
2021/07/16 02:56:02;;;;;;;10.07;9.10;;;19.90;99.90;;;;;;5073973;28;20487;-76
2021/07/16 02:58:29;;;;;;;12.10;10.10;;;19.90;99.90;;;;;;5077456;28;20437;-77
2021/07/16 03:00:55;;;;;;;11.47;10.37;;;19.80;99.90;;;;;;5074216;28;20476;-76
2021/07/16 03:03:23;;;;;;;11.57;10.33;;;19.60;99.90;;;;;;5074148;28;20501;-76
2021/07/16 03:05:49;;;;;;;12.07;10.40;;;19.70;99.90;;;;;;5073346;28;20818;-76
2021/07/16 03:08:16;;;;;;;11.10;10.00;;;19.70;99.90;;;;;;5073497;28;20952;-76
2021/07/16 03:10:45;;;;;;;11.57;10.27;;;19.70;99.90;;;;;;5073401;28;20449;-76
2021/07/16 03:13:15;;;;;;;17.03;15.23;;;19.80;99.90;;;;;;5073838;28;20448;-76
2021/07/16 03:15:42;;;;;;;12.47;9.63;;;19.70;99.90;;;;;;5073337;28;21010;-77
2021/07/16 03:18:09;;;;;;;11.53;9.63;;;19.70;99.90;;;;;;5073727;28;20448;-77
2021/07/16 03:20:38;;;;;;;11.23;10.10;;;19.70;99.90;;;;;;5073343;28;20456;-77
2021/07/16 03:23:06;;;;;;;12.30;10.23;;;19.80;99.90;;;;;;5072994;28;21022;-78
2021/07/16 03:25:33;;;;;;;10.43;9.47;;;19.80;99.90;;;;;;5073357;28;20464;-76
2021/07/16 03:27:59;;;;;;;13.20;10.90;;;19.80;99.90;;;;;;5073471;28;20508;-76
2021/07/16 03:30:30;;;;;;;11.63;10.43;;;19.90;99.90;;;;;;5073344;28;20468;-76
2021/07/16 03:32:58;;;;;;;10.00;9.00;;;19.90;99.90;;;;;;5073952;28;20490;-76
2021/07/16 03:35:26;;;;;;;13.63;11.00;;;19.80;99.90;;;;;;5072981;28;21039;-76
2021/07/16 03:37:53;;;;;;;11.17;10.27;;;19.90;99.90;;;;;;5073549;28;20444;-77
2021/07/16 03:40:27;;;;;;;12.00;10.80;;;19.90;99.90;;;;;;5073221;28;20451;-76
2021/07/16 03:42:53;;;;;;;11.87;10.77;;;19.90;99.90;;;;;;5072911;28;20915;-77
2021/07/16 03:45:20;;;;;;;13.13;11.20;;;19.80;99.90;;;;;;5073039;28;20521;-77
2021/07/16 03:47:49;;;;;;;11.47;10.33;;;19.80;99.90;;;;;;5073135;28;20864;-76
2021/07/16 03:50:18;;;;;;;11.20;10.00;;;19.80;99.90;;;;;;5072865;28;20494;-76
2021/07/16 03:52:45;;;;;;;11.27;10.10;;;19.90;99.90;;;;;;5073111;28;20874;-76
2021/07/16 03:55:13;;;;;;;11.33;10.23;;;19.90;99.90;;;;;;5072820;28;20497;-76
2021/07/16 03:57:43;;;;;;;11.07;10.07;;;20.10;99.90;;;;;;5072595;28;21010;-77
2021/07/16 04:00:11;;;;;;;11.33;10.23;;;19.90;99.90;;;;;;5072619;28;20448;-76
2021/07/16 04:02:37;;;;;;;11.43;10.43;;;19.90;99.90;;;;;;5072740;28;20456;-77
2021/07/16 04:05:06;;;;;;;11.17;10.17;;;19.70;99.90;;;;;;5072419;28;20515;-76
2021/07/16 04:07:34;;;;;;;11.97;10.83;;;20.00;99.90;;;;;;5072547;28;20495;-76
2021/07/16 04:10:01;;;;;;;11.57;10.47;;;20.00;99.90;;;;;;5072924;28;20483;-77
2021/07/16 04:12:27;;;;;;;10.30;9.40;;;19.90;99.90;;;;;;5076643;28;20472;-76
2021/07/16 04:14:55;;;;;;;12.77;11.47;;;20.00;99.90;;;;;;5076312;28;20547;-77
2021/07/16 04:17:23;;;;;;;11.30;10.20;;;20.00;99.90;;;;;;5076387;28;20487;-77
2021/07/16 04:19:51;;;;;;;11.77;9.13;;;20.10;99.90;;;;;;5076324;28;20475;-77
2021/07/16 04:22:22;;;;;;;9.73;8.77;;;20.20;99.90;;;;;;5076318;28;20534;-77
2021/07/16 04:24:48;;;;;;;9.67;8.87;;;20.30;99.90;;;;;;5076162;28;20475;-76
2021/07/16 04:27:15;;;;;;;11.27;10.00;;;20.30;99.90;;;;;;5076692;28;20527;-76
2021/07/16 04:29:44;;;;;;;10.20;9.00;;;20.40;99.90;;;;;;5076184;28;20480;-77
2021/07/16 04:32:13;;;;;;;12.23;11.03;;;20.40;99.90;;;;;;5076017;28;20476;-78
2021/07/16 04:34:40;;;;;;;11.23;9.07;;;20.40;99.90;;;;;;5075964;28;20499;-77
2021/07/16 04:37:09;;;;;;;10.87;9.87;;;20.50;99.90;;;;;;5075729;28;20468;-76
2021/07/16 04:39:37;;;;;;;11.63;8.90;;;20.40;99.90;;;;;;5075900;28;20444;-76
2021/07/16 04:42:04;;;;;;;10.77;9.67;;;20.50;99.90;;;;;;5075992;28;20483;-76
2021/07/16 04:44:31;;;;;;;10.83;9.90;;;20.50;99.90;;;;;;5075730;28;20511;-76
2021/07/16 04:46:58;;;;;;;10.67;9.57;;;20.60;99.90;;;;;;5075792;28;20455;-76
2021/07/16 04:49:25;;;;;;;10.53;9.23;;;20.60;99.90;;;;;;5075572;28;20515;-76
2021/07/16 04:51:52;;;;;;;10.13;9.23;;;20.70;99.90;;;;;;5075658;28;20842;-76
2021/07/16 04:54:18;;;;;;;9.90;8.90;;;20.70;99.90;;;;;;5075690;28;21008;-76
2021/07/16 04:56:47;;;;;;;10.83;9.87;;;20.80;99.90;;;;;;5075589;28;20445;-76
2021/07/16 04:59:13;;;;;;;10.50;9.60;;;20.80;99.90;;;;;;5075594;28;20902;-76
2021/07/16 05:01:40;;;;;;;10.10;9.10;;;20.80;99.90;;;;;;5075174;28;20476;-76
2021/07/16 05:04:07;;;;;;;11.10;10.00;;;20.90;99.90;;;;;;5075075;28;20896;-76
2021/07/16 05:06:33;;;;;;;12.33;10.60;;;20.80;99.90;;;;;;5075288;28;20534;-77
2021/07/16 05:09:00;;;;;;;10.13;9.17;;;20.80;99.90;;;;;;5075457;28;20480;-77
2021/07/16 05:11:27;;;;;;;11.77;10.67;;;20.90;99.90;;;;;;5075419;28;20535;-77
2021/07/16 05:13:54;;;;;;;11.97;10.47;;;20.90;99.90;;;;;;5075080;28;21016;-77
2021/07/16 05:16:21;;;;;;;12.73;11.43;;;21.00;99.90;;;;;;5075664;28;20473;-78
2021/07/16 05:18:48;;;;;;;16.70;11.30;;;21.00;99.90;;;;;;5075098;28;20479;-76
2021/07/16 05:21:15;;;;;;;14.80;13.20;;;21.00;99.90;;;;;;5074698;28;20484;-78
2021/07/16 05:23:42;;;;;;;17.93;12.20;;;21.10;99.90;;;;;;5074230;28;20496;-76
2021/07/16 05:26:09;;;;;;;12.47;11.17;;;21.10;99.90;;;;;;5075139;28;20835;-76
2021/07/16 05:28:35;;;;;;;14.37;11.97;;;21.10;99.90;;;;;;5074770;28;20571;-76
2021/07/16 05:31:03;;;;;;;12.30;11.00;;;21.30;99.90;;;;;;5075129;28;20532;-76
2021/07/16 05:33:30;;;;;;;13.03;11.77;;;21.30;99.90;;;;;;5074878;28;20963;-76
2021/07/16 05:35:57;;;;;;;13.07;11.87;;;21.30;99.90;;;;;;5075451;28;20873;-78
2021/07/16 05:38:25;;;;;;;13.83;11.40;;;21.50;99.90;;;;;;5074670;28;20471;-77
2021/07/16 05:40:52;;;;;;;12.20;10.43;;;21.30;99.90;;;;;;5074910;28;20449;-77
2021/07/16 05:43:19;;;;;;;12.97;11.53;;;21.60;99.90;;;;;;5074869;28;20449;-76
2021/07/16 05:45:45;;;;;;;11.17;10.07;;;21.70;99.90;;;;;;5074826;28;20445;-78
2021/07/16 05:48:17;;;;;;;12.60;11.23;;;21.70;99.90;;;;;;5074781;28;20510;-76
2021/07/16 05:50:46;;;;;;;11.03;10.07;;;21.60;99.90;;;;;;5074773;28;20682;-76
2021/07/16 05:53:13;;;;;;;11.20;10.20;;;21.80;99.90;;;;;;5074770;28;20578;-76
2021/07/16 05:55:40;;;;;;;11.93;10.57;;;21.80;99.90;;;;;;5075098;28;20547;-77
2021/07/16 05:58:07;;;;;;;13.53;11.67;;;21.90;99.90;;;;;;5074478;28;20939;-76
2021/07/16 06:00:35;;;;;;;13.57;11.73;;;22.10;99.90;;;;;;5074342;28;20468;-76
2021/07/16 06:03:02;;;;;;;11.97;10.77;;;22.10;99.90;;;;;;5074638;28;20947;-76
2021/07/16 06:05:31;;;;;;;11.67;10.70;;;22.10;99.90;;;;;;5074392;28;20904;-78
2021/07/16 06:07:58;;;;;;;11.30;10.27;;;22.20;99.90;;;;;;5074507;28;20453;-78
2021/07/16 06:10:25;;;;;;;15.17;9.50;;;22.10;99.90;;;;;;5073871;28;21036;-76
2021/07/16 06:12:52;;;;;;;13.90;12.03;;;22.30;99.90;;;;;;5074457;28;20533;-76
2021/07/16 06:15:18;;;;;;;16.20;12.37;;;22.20;99.90;;;;;;5073887;28;20507;-78
2021/07/16 06:17:45;;;;;;;14.17;12.80;;;22.40;99.90;;;;;;5074242;28;20947;-77
2021/07/16 06:20:14;;;;;;;12.37;10.93;;;22.30;99.90;;;;;;5074090;28;20514;-76
2021/07/16 06:22:43;;;;;;;11.50;10.30;;;22.30;99.90;;;;;;5073867;28;20489;-76
2021/07/16 06:25:11;;;;;;;11.90;10.23;;;22.30;99.90;;;;;;5074281;28;20466;-76
2021/07/16 06:27:39;;;;;;;10.40;9.10;;;22.50;99.90;;;;;;5074037;28;20902;-77
2021/07/16 06:30:07;;;;;;;10.70;9.77;;;22.90;99.90;;;;;;5073948;28;20481;-76
2021/07/16 06:32:33;;;;;;;12.60;11.30;;;22.50;99.90;;;;;;5073910;28;20480;-76
2021/07/16 06:35:00;;;;;;;11.57;10.40;;;22.50;99.90;;;;;;5073604;28;20500;-76
2021/07/16 06:37:27;;;;;;;10.43;9.53;;;22.70;99.90;;;;;;5073809;28;20445;-76
2021/07/16 06:39:56;;;;;;;11.03;9.70;;;22.80;99.90;;;;;;5073896;28;20440;-78
2021/07/16 06:42:22;;;;;;;11.00;9.77;;;22.80;99.90;;;;;;5073688;28;20448;-78
2021/07/16 06:44:49;;;;;;;12.30;9.40;;;22.70;99.90;;;;;;5073781;28;20502;-76
2021/07/16 06:47:16;;;;;;;9.77;8.80;;;22.80;99.90;;;;;;5073808;28;20445;-78
2021/07/16 06:49:42;;;;;;;10.60;9.70;;;22.80;99.90;;;;;;5073448;28;21022;-76
2021/07/16 06:52:09;;;;;;;12.77;9.43;;;22.90;99.90;;;;;;5073527;28;20449;-76
2021/07/16 06:54:38;;;;;;;9.97;8.97;;;23.20;99.90;;;;;;5073126;28;20982;-77
2021/07/16 06:57:06;;;;;;;10.30;9.20;;;23.10;99.90;;;;;;5073321;28;20951;-78
2021/07/16 06:59:33;;;;;;;14.80;9.07;;;23.10;99.90;;;;;;5073462;28;20472;-78
2021/07/16 07:02:00;;;;;;;10.83;9.67;;;23.20;99.90;;;;;;5073542;28;20478;-76
2021/07/16 07:04:26;;;;;;;10.17;8.73;;;23.30;99.90;;;;;;5073134;28;20492;-76
2021/07/16 07:06:53;;;;;;;11.97;10.77;;;23.30;99.90;;;;;;5073523;28;20450;-76
2021/07/16 07:09:19;;;;;;;10.57;9.50;;;23.30;99.90;;;;;;5073402;28;20521;-76
2021/07/16 07:11:46;;;;;;;9.83;9.03;;;23.40;99.90;;;;;;5073456;28;20476;-76
2021/07/16 07:14:14;;;;;;;11.10;10.00;;;23.40;99.90;;;;;;5073404;28;20470;-76
2021/07/16 07:16:40;;;;;;;12.13;10.13;;;23.40;99.90;;;;;;5073406;28;20446;-76
2021/07/16 07:19:10;;;;;;;9.70;8.70;;;23.40;99.90;;;;;;5073649;28;20490;-77
2021/07/16 07:21:39;;;;;;;13.43;9.40;;;23.50;99.90;;;;;;5073385;28;20446;-78
2021/07/16 07:24:06;;;;;;;12.17;9.23;;;23.70;99.90;;;;;;5073372;28;20497;-77
2021/07/16 07:26:33;;;;;;;10.67;9.77;;;23.70;99.90;;;;;;5073289;28;20857;-78
2021/07/16 07:29:00;;;;;;;12.60;11.47;;;23.70;99.90;;;;;;5073041;28;20538;-77
2021/07/16 07:31:28;;;;;;;11.83;10.77;;;23.90;99.90;;;;;;5072995;28;20490;-76
2021/07/16 07:33:55;;;;;;;10.97;9.83;;;23.80;99.90;;;;;;5072785;28;21066;-77
2021/07/16 07:36:21;;;;;;;11.97;10.87;;;24.00;99.90;;;;;;5073023;28;20449;-77
2021/07/16 07:38:50;;;;;;;13.33;12.03;;;23.80;99.90;;;;;;5073065;28;20479;-77
2021/07/16 07:41:20;;;;;;;12.63;11.30;;;23.90;99.90;;;;;;5071305;28;20443;-77
2021/07/16 07:43:49;;;;;;;14.20;10.20;;;23.80;99.90;;;;;;5070791;28;21000;-76
2021/07/16 07:46:18;;;;;;;10.17;9.37;;;23.90;99.90;;;;;;5075336;28;20536;-78
2021/07/16 07:48:46;;;;;;;12.20;9.60;;;23.90;99.90;;;;;;5076717;28;20485;-78
2021/07/16 07:51:13;;;;;;;13.20;11.87;;;24.00;99.90;;;;;;5077238;28;20837;-77
2021/07/16 07:53:39;;;;;;;12.23;10.93;;;24.00;99.90;;;;;;5075787;28;20446;-77
2021/07/16 07:56:06;;;;;;;17.13;11.70;;;24.00;99.90;;;;;;5078574;28;20558;-79
2021/07/16 07:58:33;;;;;;;14.83;12.37;;;24.10;99.90;;;;;;5078521;28;20542;-78
2021/07/16 08:00:59;;;;;;;12.80;11.20;;;24.20;99.90;;;;;;5078630;28;20520;-79
2021/07/16 08:03:26;;;;;;;13.93;11.43;;;24.10;99.90;;;;;;5078708;28;20454;-78
2021/07/16 08:05:54;;;;;;;10.53;9.67;;;24.30;99.90;;;;;;5079126;28;20482;-78
2021/07/16 08:08:20;;;;;;;12.87;11.77;;;23.90;99.90;;;;;;5079261;28;20478;-80
2021/07/16 08:10:47;;;;;;;11.67;10.47;;;24.30;99.90;;;;;;5079249;28;20919;-79
2021/07/16 08:13:13;;;;;;;11.87;10.80;;;24.30;99.90;;;;;;5078866;28;20950;-79
2021/07/16 08:15:40;;;;;;;12.30;11.00;;;24.30;99.90;;;;;;5078325;28;20464;-77
2021/07/16 08:18:07;;;;;;;10.60;9.60;;;24.40;99.90;;;;;;5078419;28;20479;-78
2021/07/16 08:20:33;;;;;;;11.27;10.27;;;24.40;99.90;;;;;;5078554;28;20500;-78
2021/07/16 08:23:01;;;;;;;18.53;15.13;;;24.50;99.90;;;;;;5078268;28;20480;-78
2021/07/16 08:25:28;;;;;;;13.20;11.93;;;24.60;99.90;;;;;;5079374;28;20511;-78
2021/07/16 08:27:54;;;;;;;11.00;9.90;;;24.70;99.90;;;;;;5078628;28;20451;-78
2021/07/16 08:30:21;;;;;;;15.50;12.07;;;24.70;99.90;;;;;;5077939;28;20479;-79
2021/07/16 08:32:47;;;;;;;15.10;12.20;;;24.80;99.90;;;;;;5078931;28;20472;-79
2021/07/16 08:35:14;;;;;;;13.63;12.37;;;24.90;99.90;;;;;;5078269;28;20525;-77
2021/07/16 08:37:41;;;;;;;12.37;11.30;;;24.90;99.90;;;;;;5078606;28;20501;-79
2021/07/16 08:40:10;;;;;;;11.50;9.70;;;24.90;99.90;;;;;;5078013;28;20441;-78
2021/07/16 08:42:37;;;;;;;12.17;10.87;;;25.10;99.90;;;;;;5077878;28;20498;-78
2021/07/16 08:45:06;;;;;;;11.63;9.63;;;25.10;99.90;;;;;;5077404;28;20504;-78
2021/07/16 08:47:34;;;;;;;11.30;10.10;;;25.20;99.90;;;;;;5078280;28;20483;-78
2021/07/16 08:50:01;;;;;;;12.17;10.97;;;25.20;99.90;;;;;;5076392;28;20483;-78
2021/07/16 08:52:30;;;;;;;15.53;11.37;;;25.20;99.90;;;;;;5076820;28;20497;-78
2021/07/16 08:54:58;;;;;;;11.23;10.23;;;25.20;99.90;;;;;;5076075;28;20496;-78
2021/07/16 08:57:27;;;;;;;11.70;10.53;;;25.10;99.90;;;;;;5075899;28;20455;-78
2021/07/16 08:59:54;;;;;;;13.10;11.93;;;25.40;99.90;;;;;;5076254;28;20939;-79
2021/07/16 09:02:25;;;;;;;13.57;12.17;;;25.30;99.90;;;;;;5076903;28;20445;-78
2021/07/16 09:04:58;;;;;;;19.60;11.60;;;25.40;99.90;;;;;;5076401;28;20483;-77
2021/07/16 09:07:25;;;;;;;11.50;10.40;;;25.40;99.90;;;;;;5076269;28;20468;-77
2021/07/16 09:09:51;;;;;;;13.43;11.93;;;25.40;99.90;;;;;;5076225;28;20589;-77
2021/07/16 09:12:18;;;;;;;10.20;9.30;;;25.50;99.90;;;;;;5076574;28;20479;-77
2021/07/16 09:14:46;;;;;;;13.33;10.70;;;25.50;99.90;;;;;;5076543;28;20479;-77
2021/07/16 09:17:15;;;;;;;11.90;10.83;;;25.40;99.90;;;;;;5076255;28;20448;-77
2021/07/16 09:19:43;;;;;;;13.53;10.87;;;25.50;99.90;;;;;;5076464;28;20455;-77
2021/07/16 09:22:13;;;;;;;11.90;9.73;;;25.60;99.90;;;;;;5076166;28;20449;-78
2021/07/16 09:24:41;;;;;;;14.20;12.77;;;25.60;99.90;;;;;;5075628;28;20468;-79
2021/07/16 09:27:30;;;;;;;13.67;12.20;;;25.60;99.90;;;;;;5076234;28;20449;-78
2021/07/16 09:30:15;;;;;;;12.27;11.07;;;25.70;99.90;;;;;;5076271;28;20477;-79
2021/07/16 09:32:44;;;;;;;11.40;10.50;;;25.70;99.90;;;;;;5076084;28;20468;-79
2021/07/16 09:35:17;;;;;;;14.67;10.73;;;25.80;99.90;;;;;;5075777;28;20556;-77
2021/07/16 09:37:52;;;;;;;11.33;10.33;;;25.80;99.90;;;;;;5076026;28;20439;-77
2021/07/16 09:40:27;;;;;;;15.93;13.10;;;25.80;99.90;;;;;;5075710;28;20467;-77
2021/07/16 09:43:02;;;;;;;13.20;11.90;;;25.90;99.90;;;;;;5075450;28;20451;-78
2021/07/16 09:45:30;;;;;;;12.00;10.90;;;26.00;99.90;;;;;;5075567;28;20551;-78
2021/07/16 09:47:59;;;;;;;15.10;13.10;;;26.00;99.90;;;;;;5075508;28;20824;-78
2021/07/16 09:50:26;;;;;;;13.53;12.17;;;26.10;99.90;;;;;;5076896;28;20530;-79
2021/07/16 09:53:15;;;;;;;18.60;14.23;;;26.20;99.90;;;;;;5075896;28;20448;-78
2021/07/16 09:55:43;;;;;;;12.90;11.70;;;26.30;99.90;;;;;;5075143;28;20514;-78
2021/07/16 09:58:24;;;;;;;13.07;11.87;;;26.40;99.90;;;;;;5075388;28;20455;-79
2021/07/16 10:00:53;;;;;;;13.93;12.63;;;26.10;99.90;;;;;;5075017;28;20479;-77
2021/07/16 10:03:20;;;;;;;13.27;12.10;;;26.00;99.90;;;;;;5075134;28;20448;-78
2021/07/16 10:05:49;;;;;;;13.00;11.70;;;26.10;99.90;;;;;;5080294;22;20493;-76
2021/07/16 10:08:17;;;;;;;12.87;11.73;;;26.10;99.90;;;;;;5053549;28;20872;-76
2021/07/16 10:10:44;;;;;;;13.70;12.40;;;26.30;99.90;;;;;;5055832;28;20517;-76
2021/07/16 10:13:12;;;;;;;13.37;12.17;;;26.40;99.90;;;;;;5056135;28;20477;-76
2021/07/16 10:15:41;;;;;;;13.27;12.07;;;26.50;99.90;;;;;;5056079;28;20465;-76
2021/07/16 10:18:09;;;;;;;13.67;12.47;;;26.60;99.90;;;;;;5056294;28;20477;-77
2021/07/16 10:20:37;;;;;;;14.30;12.80;;;26.70;99.90;;;;;;5055525;28;20446;-77
2021/07/16 10:23:05;;;;;;;18.17;12.40;;;26.60;99.90;;;;;;5054250;28;20951;-77
2021/07/16 10:25:32;;;;;;;13.83;12.53;;;26.70;99.90;;;;;;5054372;28;20470;-77
2021/07/16 10:27:58;;;;;;;13.63;12.40;;;26.70;99.90;;;;;;5054354;28;20477;-76
2021/07/16 10:30:32;;;;;;;14.30;12.93;;;26.70;99.90;;;;;;5053820;28;20509;-77
2021/07/16 10:33:00;;;;;;;14.63;13.33;;;26.50;99.90;;;;;;5053476;28;20430;-76
2021/07/16 10:35:29;;;;;;;14.37;12.80;;;26.50;99.90;;;;;;5053282;28;20884;-76
2021/07/16 10:37:58;;;;;;;13.87;12.47;;;26.50;99.90;;;;;;5053104;28;20472;-76
2021/07/16 10:40:40;;;;;;;13.67;12.27;;;26.60;99.90;;;;;;5053189;28;20485;-76
2021/07/16 10:43:08;;;;;;;15.77;14.07;;;26.70;99.90;;;;;;5053310;28;20437;-76
2021/07/16 10:45:36;;;;;;;13.53;12.40;;;26.90;99.90;;;;;;5053086;28;20545;-76
2021/07/16 10:48:14;;;;;;;14.67;12.80;;;27.00;99.90;;;;;;5052942;28;20793;-76
2021/07/16 10:50:44;;;;;;;12.93;11.83;;;27.10;99.90;;;;;;5052836;28;21086;-76
2021/07/16 10:53:17;;;;;;;12.73;11.20;;;27.20;99.90;;;;;;5052810;28;20500;-76
2021/07/16 10:56:04;;;;;;;13.60;12.30;;;26.90;99.90;;;;;;5053210;28;20466;-76
2021/07/16 10:58:43;;;;;;;15.43;11.50;;;26.90;99.90;;;;;;5053052;28;20454;-77
2021/07/16 11:01:11;;;;;;;16.93;15.13;;;27.00;99.90;;;;;;5054337;28;20431;-77
2021/07/16 11:03:39;;;;;;;13.63;12.20;;;27.00;99.90;;;;;;5053767;28;20901;-76
2021/07/16 11:06:08;;;;;;;13.80;12.50;;;27.00;99.90;;;;;;5056188;28;20534;-76
2021/07/16 11:08:53;;;;;;;12.60;11.33;;;27.00;99.90;;;;;;5054635;28;20812;-76
2021/07/16 11:11:23;;;;;;;12.67;11.47;;;27.10;99.90;;;;;;5053058;28;20474;-76
2021/07/16 11:13:50;;;;;;;14.37;11.30;;;26.70;99.90;;;;;;5052490;28;20940;-75
2021/07/16 11:16:39;;;;;;;12.23;11.17;;;27.00;99.90;;;;;;5053144;28;20536;-76
2021/07/16 11:19:18;;;;;;;13.70;11.90;;;27.10;99.90;;;;;;5052640;28;20432;-76
2021/07/16 11:22:03;;;;;;;15.03;10.40;;;27.20;99.90;;;;;;5053291;28;20539;-76
2021/07/16 11:24:33;;;;;;;12.37;11.27;;;27.20;99.90;;;;;;5052788;28;20469;-76
2021/07/16 11:27:02;;;;;;;17.83;11.50;;;27.20;99.90;;;;;;5052859;28;20819;-76
2021/07/16 11:29:32;;;;;;;11.30;10.20;;;27.10;99.90;;;;;;5052859;28;20449;-76
2021/07/16 11:32:04;;;;;;;13.43;11.77;;;27.10;99.90;;;;;;5052807;28;20485;-76
2021/07/16 11:34:30;;;;;;;10.63;8.83;;;27.10;99.90;;;;;;5052779;28;20549;-76
2021/07/16 11:36:57;;;;;;;11.90;10.70;;;27.10;99.90;;;;;;5052780;28;20535;-76
2021/07/16 11:39:31;;;;;;;10.90;9.80;;;27.20;99.90;;;;;;5053135;28;20534;-76
2021/07/16 11:41:57;;;;;;;11.53;10.33;;;27.40;99.90;;;;;;5052965;28;20925;-76
2021/07/16 11:44:28;;;;;;;12.23;10.17;;;27.40;99.90;;;;;;5052969;28;20999;-76
2021/07/16 11:46:56;;;;;;;19.37;11.63;;;27.50;99.90;;;;;;5053618;28;20484;-76
2021/07/16 11:49:26;;;;;;;9.57;8.53;;;27.60;99.90;;;;;;5054027;28;20536;-76
2021/07/16 11:52:01;;;;;;;18.63;16.67;;;27.60;99.90;;;;;;5053357;28;20489;-76
2021/07/16 11:54:30;;;;;;;13.27;12.07;;;27.60;99.90;;;;;;5053705;28;20868;-77
2021/07/16 11:56:58;;;;;;;11.77;10.33;;;27.70;99.90;;;;;;5052680;28;20872;-76
2021/07/16 11:59:26;;;;;;;10.07;8.80;;;27.80;99.90;;;;;;5052756;28;20883;-77
2021/07/16 12:02:06;;;;;;;8.90;7.77;;;27.80;99.90;;;;;;5052766;28;20446;-76
2021/07/16 12:04:33;;;;;;;8.43;7.50;;;27.80;99.90;;;;;;5052400;28;20521;-76
2021/07/16 12:06:59;;;;;;;7.80;7.10;;;27.70;99.90;;;;;;5052940;28;20478;-77
2021/07/16 12:09:32;;;;;;;9.30;8.30;;;27.70;99.90;;;;;;5052806;28;20447;-76
2021/07/16 12:12:03;;;;;;;9.83;8.80;;;27.80;99.90;;;;;;5061863;28;20482;-76
2021/07/16 12:14:30;;;;;;;9.20;7.63;;;27.80;99.90;;;;;;5063266;28;20454;-77
2021/07/16 12:16:57;;;;;;;9.47;7.93;;;28.00;99.90;;;;;;5056343;28;20924;-77
2021/07/16 12:19:23;;;;;;;7.97;7.03;;;28.10;99.90;;;;;;5053990;28;20452;-77
2021/07/16 12:21:51;;;;;;;9.33;8.30;;;28.20;99.90;;;;;;5054177;28;20443;-76
2021/07/16 12:24:19;;;;;;;9.70;8.70;;;28.20;99.90;;;;;;5052711;28;20558;-76
2021/07/16 12:26:46;;;;;;;11.07;9.97;;;28.20;99.90;;;;;;5052407;28;20486;-76
2021/07/16 12:29:13;;;;;;;8.83;7.93;;;28.20;99.90;;;;;;5052195;28;20450;-76
2021/07/16 12:31:50;;;;;;;11.27;10.00;;;28.20;99.90;;;;;;5053518;28;20510;-76
2021/07/16 12:34:21;;;;;;;8.07;7.30;;;28.10;99.90;;;;;;5056008;28;20471;-76
2021/07/16 12:36:49;;;;;;;8.77;7.80;;;28.20;99.90;;;;;;5055583;28;20452;-77
2021/07/16 12:39:20;;;;;;;8.53;7.83;;;28.20;99.90;;;;;;5055737;28;20816;-77
2021/07/16 12:41:48;;;;;;;7.60;7.00;;;28.20;99.90;;;;;;5055612;28;20466;-77
2021/07/16 12:44:15;;;;;;;9.87;8.90;;;28.10;99.90;;;;;;5055511;28;20879;-77
2021/07/16 12:46:42;;;;;;;7.33;6.70;;;28.10;99.90;;;;;;5055610;28;20576;-77
2021/07/16 12:49:10;;;;;;;9.70;8.13;;;28.10;99.90;;;;;;5055290;28;20511;-76
2021/07/16 12:51:40;;;;;;;9.03;7.20;;;28.10;99.90;;;;;;5055409;28;20515;-76
2021/07/16 12:54:16;;;;;;;8.17;7.43;;;28.20;99.90;;;;;;5056145;28;20803;-77
2021/07/16 12:56:43;;;;;;;8.30;6.07;;;28.30;99.90;;;;;;5055825;28;20445;-76
2021/07/16 12:59:22;;;;;;;9.67;7.63;;;28.20;99.90;;;;;;5055515;28;20479;-76
2021/07/16 13:01:50;;;;;;;7.83;7.23;;;28.30;99.90;;;;;;5055897;28;20520;-76
2021/07/16 13:04:18;;;;;;;6.77;6.27;;;28.40;99.90;;;;;;5055758;28;20545;-76
2021/07/16 13:06:45;;;;;;;7.10;6.40;;;28.50;99.90;;;;;;5055647;28;20480;-76
2021/07/16 13:09:16;;;;;;;7.40;6.83;;;28.50;99.90;;;;;;5055411;28;20452;-77
2021/07/16 13:11:43;;;;;;;7.77;6.97;;;28.50;99.90;;;;;;5055384;28;20945;-76
2021/07/16 13:14:24;;;;;;;8.40;7.30;;;28.60;99.90;;;;;;5055692;28;20561;-76
2021/07/16 13:16:51;;;;;;;13.90;8.00;;;28.60;99.90;;;;;;5055629;28;20922;-76
2021/07/16 13:19:17;;;;;;;7.80;7.20;;;28.70;99.90;;;;;;5055566;28;20487;-78
2021/07/16 13:21:44;;;;;;;7.00;6.37;;;28.70;99.90;;;;;;5055223;28;20483;-76
2021/07/16 13:24:10;;;;;;;8.87;6.47;;;28.60;99.90;;;;;;5055613;28;20516;-76
2021/07/16 13:26:37;;;;;;;7.30;6.60;;;28.50;99.90;;;;;;5055383;28;20536;-76
2021/07/16 13:29:05;;;;;;;15.03;9.00;;;28.50;99.90;;;;;;5055462;28;20814;-76
2021/07/16 13:31:33;;;;;;;9.73;7.90;;;28.50;99.90;;;;;;5055055;28;20489;-78
2021/07/16 13:34:00;;;;;;;12.10;7.60;;;28.70;99.90;;;;;;5054903;28;20448;-75
2021/07/16 13:36:26;;;;;;;8.63;7.53;;;28.40;99.90;;;;;;5054930;28;20800;-76
2021/07/16 13:38:53;;;;;;;7.90;7.10;;;28.40;99.90;;;;;;5054981;28;20936;-77
2021/07/16 13:41:19;;;;;;;9.53;7.43;;;28.50;99.90;;;;;;5054928;28;20476;-76
2021/07/16 13:43:46;;;;;;;12.67;10.10;;;28.40;99.90;;;;;;5053873;28;20448;-78